Time;durP1;ratioP1;P1;durP2;ratioP2;P2;SDS_P1;SDS_P2;PMS_P1;PMS_P2;Temp;Humidity;BMP_temperature;BMP_pressure;BME280_temperature;BME280_humidity;BME280_pressure;Samples;Min_cycle;Max_cycle;Signal;HPM_P1;HPM_P2
2022/10/17 00:07:14;;;;;;;10.33;5.40;;;;;;;;;;6246870;23;20357;-93
2022/10/17 00:10:06;;;;;;;11.03;4.90;;;;;;;;;;6202612;23;20395;-92
2022/10/17 00:12:37;;;;;;;10.73;5.30;;;;;;;;;;6196342;23;20413;-92
2022/10/17 00:15:21;;;;;;;13.30;5.07;;;;;;;;;;6200366;23;20460;-93
2022/10/17 00:17:58;;;;;;;11.47;5.90;;;;;;;;;;6198903;23;20924;-93
2022/10/17 00:20:34;;;;;;;10.53;5.90;;;;;;;;;;6197648;23;20492;-93
2022/10/17 00:23:01;;;;;;;9.70;5.20;;;;;;;;;;6219792;23;20445;-93
2022/10/17 00:25:39;;;;;;;9.40;5.30;;;;;;;;;;6195412;23;20406;-92
2022/10/17 00:28:10;;;;;;;8.97;4.63;;;;;;;;;;6195157;23;20434;-93
2022/10/17 00:30:41;;;;;;;11.70;4.37;;;;;;;;;;6195501;23;20398;-93
2022/10/17 00:33:21;;;;;;;7.77;4.93;;;;;;;;;;6165602;23;20400;-92
2022/10/17 00:36:13;;;;;;;12.43;4.77;;;;;;;;;;6171963;23;20415;-92
2022/10/17 00:42:23;;;;;;;10.40;5.17;;;;;;;;;;6216459;23;20359;-93
2022/10/17 00:45:00;;;;;;;18.97;6.13;;;;;;;;;;6190650;23;20431;-92
2022/10/17 00:47:40;;;;;;;14.10;5.50;;;;;;;;;;6191286;23;20458;-93
2022/10/17 00:50:39;;;;;;;11.37;4.50;;;;;;;;;;6192237;23;20413;-93
2022/10/17 01:03:45;;;;;;;13.50;5.33;;;;;;;;;;6124610;23;20362;-92
2022/10/17 01:06:12;;;;;;;8.93;4.30;;;;;;;;;;6100314;23;20413;-93
2022/10/17 01:08:39;;;;;;;11.20;4.50;;;;;;;;;;6100362;23;20493;-93
2022/10/17 01:32:03;;;;;;;13.03;4.73;;;;;;;;;;6144311;23;20764;-94
2022/10/17 01:37:59;;;;;;;10.13;4.27;;;;;;;;;;6246401;23;20737;-92
2022/10/17 01:40:30;;;;;;;9.10;4.47;;;;;;;;;;6248336;23;20418;-91
2022/10/17 01:43:00;;;;;;;8.00;4.50;;;;;;;;;;6248571;22;20407;-94
2022/10/17 01:45:45;;;;;;;11.07;4.80;;;;;;;;;;6246462;23;20898;-92
2022/10/17 01:48:33;;;;;;;24.60;5.47;;;;;;;;;;6220933;23;20382;-91
2022/10/17 01:51:05;;;;;;;11.33;4.57;;;;;;;;;;6245713;23;20375;-93
2022/10/17 01:53:51;;;;;;;10.57;4.40;;;;;;;;;;6245063;23;20406;-93
2022/10/17 01:56:20;;;;;;;12.13;5.67;;;;;;;;;;6220171;23;20808;-91
2022/10/17 01:58:50;;;;;;;12.43;4.67;;;;;;;;;;6245363;23;20378;-91
2022/10/17 02:01:25;;;;;;;9.67;4.73;;;;;;;;;;6246204;22;21007;-92
2022/10/17 02:04:24;;;;;;;9.87;4.83;;;;;;;;;;6220923;23;20379;-92
2022/10/17 02:06:55;;;;;;;8.70;4.00;;;;;;;;;;6245655;23;20694;-91
2022/10/17 02:09:31;;;;;;;10.70;4.80;;;;;;;;;;6245331;23;20404;-92
2022/10/17 02:12:33;;;;;;;8.80;4.53;;;;;;;;;;6247028;23;20424;-93
2022/10/17 02:15:31;;;;;;;13.83;5.27;;;;;;;;;;6246859;23;20488;-92
2022/10/17 02:18:08;;;;;;;7.67;3.90;;;;;;;;;;6131263;23;20456;-92
2022/10/17 02:21:04;;;;;;;10.37;4.43;;;;;;;;;;6155858;23;20487;-92
2022/10/17 02:23:37;;;;;;;13.30;4.60;;;;;;;;;;6155476;23;20971;-92
2022/10/17 02:26:19;;;;;;;12.50;4.70;;;;;;;;;;6155316;23;20460;-91
2022/10/17 02:28:51;;;;;;;16.63;4.47;;;;;;;;;;6131078;23;20484;-92
2022/10/17 02:31:24;;;;;;;16.73;5.03;;;;;;;;;;6107226;23;20394;-91
2022/10/17 02:34:02;;;;;;;11.60;4.77;;;;;;;;;;6106625;23;21005;-91
2022/10/17 02:36:40;;;;;;;8.63;4.70;;;;;;;;;;6131553;23;20374;-91
2022/10/17 02:39:30;;;;;;;9.43;4.40;;;;;;;;;;6106963;23;20437;-91
2022/10/17 02:42:07;;;;;;;9.63;4.07;;;;;;;;;;6155702;23;20498;-91
2022/10/17 02:44:45;;;;;;;14.73;5.10;;;;;;;;;;6154989;23;20404;-92
2022/10/17 02:47:17;;;;;;;9.40;4.33;;;;;;;;;;6156128;23;20480;-92
2022/10/17 02:50:00;;;;;;;11.90;5.30;;;;;;;;;;6107293;23;20437;-91
2022/10/17 02:55:52;;;;;;;13.30;4.57;;;;;;;;;;6248514;23;20409;-92
2022/10/17 02:58:27;;;;;;;15.10;4.97;;;;;;;;;;6222709;23;20720;-92
2022/10/17 03:01:05;;;;;;;12.40;4.70;;;;;;;;;;6221491;23;20438;-91
2022/10/17 03:03:41;;;;;;;9.53;4.03;;;;;;;;;;6246671;23;20728;-91
2022/10/17 03:06:17;;;;;;;7.30;4.00;;;;;;;;;;6246531;23;20411;-93
2022/10/17 03:08:46;;;;;;;9.20;4.10;;;;;;;;;;6222044;23;20383;-91
2022/10/17 03:11:23;;;;;;;13.47;4.63;;;;;;;;;;6221500;23;20403;-90
2022/10/17 03:14:04;;;;;;;8.93;3.93;;;;;;;;;;6221384;23;20398;-92
2022/10/17 03:16:33;;;;;;;9.00;4.73;;;;;;;;;;6221533;23;20398;-91
2022/10/17 03:19:00;;;;;;;8.30;4.00;;;;;;;;;;6222362;23;20441;-91
2022/10/17 03:21:30;;;;;;;8.00;3.97;;;;;;;;;;6221451;23;20768;-91
2022/10/17 03:23:59;;;;;;;11.93;5.40;;;;;;;;;;6221213;23;20411;-91
2022/10/17 03:26:30;;;;;;;11.50;4.80;;;;;;;;;;6221929;23;20414;-91
2022/10/17 03:28:58;;;;;;;9.30;4.30;;;;;;;;;;6248057;22;20422;-91
2022/10/17 03:31:50;;;;;;;11.83;4.17;;;;;;;;;;6221441;23;20402;-92
2022/10/17 03:34:17;;;;;;;10.07;4.23;;;;;;;;;;6245881;23;20441;-92
2022/10/17 03:36:51;;;;;;;7.60;4.23;;;;;;;;;;6221570;23;20413;-91
2022/10/17 03:39:28;;;;;;;13.00;4.80;;;;;;;;;;6221178;23;20494;-93
2022/10/17 03:42:10;;;;;;;10.10;4.43;;;;;;;;;;6247175;23;20967;-91
2022/10/17 03:44:38;;;;;;;11.33;4.20;;;;;;;;;;6221373;23;20434;-92
2022/10/17 03:47:14;;;;;;;10.90;4.30;;;;;;;;;;6220982;23;20489;-91
2022/10/17 03:49:44;;;;;;;12.73;5.23;;;;;;;;;;6221715;23;20367;-92
2022/10/17 03:52:22;;;;;;;9.57;4.33;;;;;;;;;;6221548;23;20437;-92
2022/10/17 03:54:50;;;;;;;11.70;5.03;;;;;;;;;;6246360;23;20490;-92
2022/10/17 03:57:26;;;;;;;21.77;5.57;;;;;;;;;;6222093;23;20372;-91
2022/10/17 03:59:56;;;;;;;11.60;4.30;;;;;;;;;;6245992;23;20422;-91
2022/10/17 04:02:35;;;;;;;9.07;5.30;;;;;;;;;;6221441;23;20826;-91
2022/10/17 04:05:05;;;;;;;13.27;4.80;;;;;;;;;;6245835;23;20907;-92
2022/10/17 04:07:56;;;;;;;10.97;4.30;;;;;;;;;;6246176;23;20501;-92
2022/10/17 04:10:35;;;;;;;10.90;4.73;;;;;;;;;;6246219;23;20493;-92
2022/10/17 04:13:28;;;;;;;9.47;5.33;;;;;;;;;;6220635;23;20413;-92
2022/10/17 04:16:13;;;;;;;9.00;4.30;;;;;;;;;;6246367;23;20390;-92
2022/10/17 04:22:09;;;;;;;9.23;4.40;;;;;;;;;;6247539;23;20414;-92
2022/10/17 04:24:56;;;;;;;10.70;4.87;;;;;;;;;;6246098;23;20407;-94
2022/10/17 04:27:38;;;;;;;10.90;5.77;;;;;;;;;;6245473;23;20402;-92
2022/10/17 04:30:07;;;;;;;13.43;5.50;;;;;;;;;;6247364;22;20462;-93
2022/10/17 04:32:37;;;;;;;13.70;5.27;;;;;;;;;;6220515;23;20959;-93
2022/10/17 04:35:13;;;;;;;12.17;4.73;;;;;;;;;;6246060;23;20399;-92
2022/10/17 04:37:40;;;;;;;11.90;5.07;;;;;;;;;;6245834;23;20488;-92
2022/10/17 04:43:39;;;;;;;11.93;5.00;;;;;;;;;;6247445;23;20462;-93
2022/10/17 04:46:08;;;;;;;15.33;5.50;;;;;;;;;;6246294;23;20368;-93
2022/10/17 04:48:37;;;;;;;13.80;5.77;;;;;;;;;;6221509;23;20371;-92
2022/10/17 04:51:12;;;;;;;11.47;4.80;;;;;;;;;;6220829;23;20410;-93
2022/10/17 04:56:48;;;;;;;14.70;5.83;;;;;;;;;;6246897;22;20418;-93
2022/10/17 04:59:21;;;;;;;15.73;5.40;;;;;;;;;;6220454;23;20591;-93
2022/10/17 05:01:50;;;;;;;22.27;5.80;;;;;;;;;;6220433;23;20438;-93
2022/10/17 05:04:24;;;;;;;14.30;5.30;;;;;;;;;;6220731;23;20407;-92
2022/10/17 05:06:59;;;;;;;8.70;5.07;;;;;;;;;;6246980;22;20424;-93
2022/10/17 05:09:35;;;;;;;12.90;5.60;;;;;;;;;;6245963;23;20363;-94
2022/10/17 05:12:31;;;;;;;11.50;5.37;;;;;;;;;;6245858;23;20413;-92
2022/10/17 05:18:20;;;;;;;13.63;6.87;;;;;;;;;;6247368;23;20441;-93
2022/10/17 05:21:06;;;;;;;15.17;6.40;;;;;;;;;;6220821;23;20461;-93
2022/10/17 05:23:50;;;;;;;20.20;7.30;;;;;;;;;;6246981;22;20386;-92
2022/10/17 05:26:45;;;;;;;16.10;5.90;;;;;;;;;;6220895;23;20454;-92
2022/10/17 05:32:07;;;;;;;21.70;7.20;;;;;;;;;;6246785;22;20458;-92
2022/10/17 05:34:39;;;;;;;16.37;6.87;;;;;;;;;;6166625;23;20692;-92
2022/10/17 05:37:14;;;;;;;22.07;7.43;;;;;;;;;;6165023;23;20973;-92
2022/10/17 05:39:50;;;;;;;17.63;7.40;;;;;;;;;;6165683;23;21007;-93
2022/10/17 05:42:28;;;;;;;22.40;6.67;;;;;;;;;;6190111;23;20441;-92
2022/10/17 05:45:03;;;;;;;14.80;7.40;;;;;;;;;;6191336;23;20380;-92
2022/10/17 05:47:34;;;;;;;19.40;7.70;;;;;;;;;;6168024;23;20804;-93
2022/10/17 05:50:01;;;;;;;17.90;6.90;;;;;;;;;;6192403;23;20490;-93
2022/10/17 05:52:33;;;;;;;23.60;8.43;;;;;;;;;;6167999;23;20376;-92
2022/10/17 05:55:23;;;;;;;21.53;7.90;;;;;;;;;;6167027;23;20407;-92
2022/10/17 05:58:26;;;;;;;24.67;8.17;;;;;;;;;;6192851;23;20400;-92
2022/10/17 06:01:27;;;;;;;18.27;7.97;;;;;;;;;;6196338;23;20434;-92
2022/10/17 06:07:31;;;;;;;16.23;7.23;;;;;;;;;;6218487;23;20367;-93
2022/10/17 06:10:33;;;;;;;20.73;8.27;;;;;;;;;;6150937;23;20400;-93
2022/10/17 06:16:42;;;;;;;21.67;8.13;;;;;;;;;;6218479;23;20363;-93
2022/10/17 06:23:05;;;;;;;;;;;;;;;;;;;;;
2022/10/17 06:26:27;;;;;;;;;;;;;;;;;;;;;
2022/10/17 06:29:33;;;;;;;22.77;8.40;;;;;;;;;;6218511;23;20454;-93
2022/10/17 06:35:59;;;;;;;16.87;8.63;;;;;;;;;;6217694;23;20414;-92
2022/10/17 06:45:49;;;;;;;18.57;8.30;;;;;;;;;;5955996;24;20399;-93
2022/10/17 07:19:54;;;;;;;35.90;9.60;;;;;;;;;;6185697;23;20464;-93
2022/10/17 07:22:22;;;;;;;32.97;9.70;;;;;;;;;;6136420;23;20440;-94
2022/10/17 07:28:18;;;;;;;35.47;10.90;;;;;;;;;;6185418;23;20393;-94
2022/10/17 07:34:12;;;;;;;27.30;9.33;;;;;;;;;;6205524;23;20422;-93
2022/10/17 07:40:08;;;;;;;22.93;9.80;;;;;;;;;;6215926;23;20358;-93
2022/10/17 07:42:37;;;;;;;22.87;8.53;;;;;;;;;;6165860;23;20467;-93
2022/10/17 07:45:12;;;;;;;23.43;9.50;;;;;;;;;;6165730;23;20847;-93
2022/10/17 07:51:08;;;;;;;24.00;9.97;;;;;;;;;;6246648;23;20362;-94
2022/10/17 07:53:54;;;;;;;24.87;9.57;;;;;;;;;;6220518;23;20901;-94
2022/10/17 07:59:43;;;;;;;16.70;7.30;;;;;;;;;;6247881;23;20433;-94
2022/10/17 08:02:20;;;;;;;27.27;8.07;;;;;;;;;;6196972;23;20434;-94
2022/10/17 08:08:17;;;;;;;16.40;6.70;;;;;;;;;;6247652;23;20374;-93
2022/10/17 08:13:58;;;;;;;20.10;8.20;;;;;;;;;;6247120;23;20493;-93
2022/10/17 08:19:56;;;;;;;54.50;10.50;;;;;;;;;;6247637;23;20373;-93
2022/10/17 08:28:55;;;;;;;40.60;10.70;;;;;;;;;;6247380;23;20362;-92
2022/10/17 08:31:42;;;;;;;35.43;11.10;;;;;;;;;;6197149;23;20739;-93
2022/10/17 08:34:15;;;;;;;36.77;10.00;;;;;;;;;;6233972;23;20509;-92
2022/10/17 08:40:05;;;;;;;31.80;9.23;;;;;;;;;;6247421;23;20400;-93
2022/10/17 08:45:55;;;;;;;25.73;10.20;;;;;;;;;;6247479;23;20680;-93
2022/10/17 08:48:32;;;;;;;25.73;8.80;;;;;;;;;;6223287;23;20865;-92
2022/10/17 08:51:03;;;;;;;21.60;8.97;;;;;;;;;;6221391;23;20417;-94
2022/10/17 09:21:49;;;;;;;29.90;9.20;;;;;;;;;;6247319;23;20409;-93
2022/10/17 09:24:35;;;;;;;24.70;8.60;;;;;;;;;;6130822;23;20410;-92
2022/10/17 09:27:08;;;;;;;17.33;7.87;;;;;;;;;;6154813;23;20444;-93
2022/10/17 09:29:35;;;;;;;27.50;9.37;;;;;;;;;;6105668;23;20413;-94
2022/10/17 09:32:33;;;;;;;30.60;8.67;;;;;;;;;;6132065;23;20412;-93
2022/10/17 09:35:00;;;;;;;22.43;7.63;;;;;;;;;;6154611;23;20436;-94
2022/10/17 09:37:41;;;;;;;32.57;9.93;;;;;;;;;;6129924;23;20417;-93
2022/10/17 09:40:42;;;;;;;19.70;7.77;;;;;;;;;;6130200;23;20783;-93
2022/10/17 09:43:12;;;;;;;23.63;9.10;;;;;;;;;;6154579;23;20496;-94
2022/10/17 09:46:01;;;;;;;22.83;8.97;;;;;;;;;;6130090;23;20440;-92
2022/10/17 09:48:31;;;;;;;27.67;7.67;;;;;;;;;;6125340;23;20437;-93
2022/10/17 09:50:59;;;;;;;24.37;7.80;;;;;;;;;;6106412;23;20393;-92
2022/10/17 09:53:41;;;;;;;26.57;9.40;;;;;;;;;;6111645;23;20397;-91
2022/10/17 09:56:14;;;;;;;32.30;8.77;;;;;;;;;;6106009;23;20412;-93
2022/10/17 09:58:42;;;;;;;28.17;7.47;;;;;;;;;;6105865;23;20761;-92
2022/10/17 10:01:22;;;;;;;32.03;8.50;;;;;;;;;;6146016;23;20498;-92
2022/10/17 10:04:08;;;;;;;36.67;10.00;;;;;;;;;;6246515;22;20398;-93
2022/10/17 10:06:36;;;;;;;26.50;7.83;;;;;;;;;;6245272;23;20395;-91
2022/10/17 10:09:05;;;;;;;30.03;8.30;;;;;;;;;;6219745;23;20437;-92
2022/10/17 10:11:42;;;;;;;29.30;8.73;;;;;;;;;;6245982;23;20425;-92
2022/10/17 10:14:11;;;;;;;25.87;7.53;;;;;;;;;;6245585;23;20486;-92
2022/10/17 10:16:41;;;;;;;19.40;7.50;;;;;;;;;;6220462;23;20395;-93
2022/10/17 10:19:21;;;;;;;18.03;7.67;;;;;;;;;;6220417;23;20379;-93
2022/10/17 10:21:53;;;;;;;21.90;7.40;;;;;;;;;;6246179;22;20465;-94
2022/10/17 10:24:20;;;;;;;20.10;7.00;;;;;;;;;;6220285;23;20387;-91
2022/10/17 10:26:53;;;;;;;22.77;6.40;;;;;;;;;;6244979;23;20395;-92
2022/10/17 10:29:42;;;;;;;25.20;6.83;;;;;;;;;;6243919;23;20481;-93
2022/10/17 10:32:11;;;;;;;20.27;6.70;;;;;;;;;;6222263;23;20763;-93
2022/10/17 10:34:42;;;;;;;19.27;6.20;;;;;;;;;;6221596;23;20771;-92
2022/10/17 10:37:17;;;;;;;27.47;7.10;;;;;;;;;;6222009;23;20383;-91
2022/10/17 10:39:55;;;;;;;25.17;6.57;;;;;;;;;;6221768;23;20455;-92
2022/10/17 10:42:26;;;;;;;20.17;6.50;;;;;;;;;;6221182;23;20968;-93
2022/10/17 10:44:54;;;;;;;18.00;6.57;;;;;;;;;;6221595;23;20426;-93
2022/10/17 10:47:28;;;;;;;21.03;6.17;;;;;;;;;;6220957;23;20406;-92
2022/10/17 10:50:14;;;;;;;19.93;6.33;;;;;;;;;;6222022;23;20407;-94
2022/10/17 10:53:05;;;;;;;15.73;6.37;;;;;;;;;;6247693;23;20912;-93
2022/10/17 10:58:57;;;;;;;17.40;6.30;;;;;;;;;;6248281;23;20351;-93
2022/10/17 11:01:43;;;;;;;13.63;6.47;;;;;;;;;;6221331;23;20736;-93
2022/10/17 11:04:29;;;;;;;21.60;6.67;;;;;;;;;;6246745;23;20402;-93
2022/10/17 11:07:05;;;;;;;23.37;6.23;;;;;;;;;;6247496;23;20418;-92
2022/10/17 11:09:45;;;;;;;24.43;6.27;;;;;;;;;;6221879;23;20406;-94
2022/10/17 11:12:25;;;;;;;37.53;7.03;;;;;;;;;;6246823;23;20387;-92
2022/10/17 11:14:58;;;;;;;22.80;6.47;;;;;;;;;;6246406;23;20486;-93
2022/10/17 11:17:28;;;;;;;13.23;5.00;;;;;;;;;;6221371;23;20430;-93
2022/10/17 11:20:02;;;;;;;14.93;5.63;;;;;;;;;;6222259;23;20395;-93
2022/10/17 11:22:38;;;;;;;12.73;5.27;;;;;;;;;;6221400;23;20525;-93
2022/10/17 11:25:11;;;;;;;15.40;4.80;;;;;;;;;;6246185;23;20394;-94
2022/10/17 11:27:39;;;;;;;15.80;4.83;;;;;;;;;;6246510;23;20504;-92
2022/10/17 11:30:08;;;;;;;17.10;5.10;;;;;;;;;;6221091;23;20414;-92
2022/10/17 11:32:36;;;;;;;13.70;4.97;;;;;;;;;;6221430;23;20395;-93
2022/10/17 11:35:07;;;;;;;17.87;5.70;;;;;;;;;;6221591;23;21051;-93
2022/10/17 11:37:37;;;;;;;18.70;4.60;;;;;;;;;;6247424;22;20433;-92
2022/10/17 11:40:06;;;;;;;16.80;5.00;;;;;;;;;;6221535;23;20399;-93
2022/10/17 11:42:37;;;;;;;18.27;5.27;;;;;;;;;;6245434;23;20838;-92
2022/10/17 11:45:11;;;;;;;22.00;4.83;;;;;;;;;;6246520;23;20407;-91
2022/10/17 11:47:43;;;;;;;17.70;4.33;;;;;;;;;;6220705;23;20407;-93
2022/10/17 11:50:22;;;;;;;26.33;5.97;;;;;;;;;;6221684;23;20398;-92
2022/10/17 11:53:16;;;;;;;16.90;5.07;;;;;;;;;;6225528;23;20425;-92
2022/10/17 11:55:44;;;;;;;18.20;5.03;;;;;;;;;;6246333;23;20433;-92
2022/10/17 11:58:21;;;;;;;20.73;4.77;;;;;;;;;;6221111;23;20490;-92
2022/10/17 12:01:00;;;;;;;23.10;4.80;;;;;;;;;;6246208;23;20406;-93
2022/10/17 12:03:37;;;;;;;14.60;4.97;;;;;;;;;;6221162;23;20488;-93
2022/10/17 12:06:13;;;;;;;22.60;5.30;;;;;;;;;;6247086;22;20421;-92
2022/10/17 12:12:05;;;;;;;27.00;6.47;;;;;;;;;;6247670;23;20346;-92
2022/10/17 12:14:34;;;;;;;20.73;5.93;;;;;;;26.67;nan;101626.69;6220387;23;20478;-93
2022/10/17 12:17:02;;;;;;;14.80;4.80;;;;;;;26.69;nan;101627.25;6135741;23;20440;-93
2022/10/17 12:19:32;;;;;;;10.33;4.40;;;;;;;26.68;nan;101611.53;6111408;23;20418;-92
2022/10/17 12:22:22;;;;;;;10.87;4.30;;;;;;;26.72;nan;101629.50;6112006;23;20774;-94
2022/10/17 12:24:56;;;;;;;20.20;4.60;;;;;;;26.73;nan;101631.19;6135880;23;20404;-90
2022/10/17 12:27:38;;;;;;;15.67;4.07;;;;;;;26.84;nan;101624.44;6136410;23;20424;-92
2022/10/17 12:30:15;;;;;;;14.43;4.93;;;;;;;26.99;nan;101622.75;6112293;23;20528;-94
2022/10/17 12:33:04;;;;;;;15.37;4.90;;;;;;;27.14;nan;101625.53;6160093;23;20400;-92
2022/10/17 12:35:35;;;;;;;12.10;5.40;;;;;;;27.23;nan;101618.25;6138322;23;20552;-94
2022/10/17 12:38:24;;;;;;;13.77;5.83;;;;;;;27.39;nan;101619.88;6113397;23;20423;-92
2022/10/17 12:40:54;;;;;;;9.07;4.33;;;;;;;27.47;nan;101608.06;6146876;23;20399;-93
2022/10/17 12:43:27;;;;;;;10.03;4.63;;;;;;;27.64;nan;101606.91;6221787;23;20514;-94
2022/10/17 12:45:58;;;;;;;24.40;5.90;;;;;;;27.74;nan;101606.84;6245159;23;20403;-93
2022/10/17 12:48:32;;;;;;;11.17;4.37;;;;;;;27.81;nan;101607.41;6221573;23;20402;-92
2022/10/17 12:51:13;;;;;;;11.50;3.77;;;;;;;27.82;nan;101595.03;6245792;23;20406;-92
2022/10/17 12:54:13;;;;;;;14.13;3.57;;;;;;;27.76;nan;101577.34;6226614;23;20445;-93
2022/10/17 12:56:43;;;;;;;10.47;4.13;;;;;;;27.78;nan;101586.34;6197714;23;20477;-94
2022/10/17 12:59:15;;;;;;;14.80;3.67;;;;;;;27.82;nan;101586.59;6196939;23;20937;-92
2022/10/17 13:01:46;;;;;;;14.50;3.97;;;;;;;27.87;nan;101589.41;6195846;23;20410;-92
2022/10/17 13:04:15;;;;;;;12.43;4.60;;;;;;;27.91;nan;101584.00;6220920;23;20438;-94
2022/10/17 13:06:53;;;;;;;15.70;4.77;;;;;;;27.94;nan;101575.84;6195737;23;20410;-93
2022/10/17 13:09:31;;;;;;;21.17;4.93;;;;;;;28.07;nan;101588.44;6221056;23;20473;-93
2022/10/17 13:12:00;;;;;;;14.83;4.80;;;;;;;28.07;nan;101585.63;6220143;23;20413;-93
2022/10/17 13:14:28;;;;;;;14.77;4.20;;;;;;;28.11;nan;101579.09;6196263;23;20402;-91
2022/10/17 13:17:01;;;;;;;22.73;5.30;;;;;;;28.10;nan;101566.19;6196531;23;20489;-92
2022/10/17 13:19:41;;;;;;;12.63;3.70;;;;;;;28.17;nan;101568.69;6196205;23;20398;-92
2022/10/17 13:22:18;;;;;;;21.77;5.10;;;;;;;28.18;nan;101565.56;6196208;23;20457;-91
2022/10/17 13:24:47;;;;;;;16.33;4.57;;;;;;;28.23;nan;101559.13;6220808;23;20477;-94
2022/10/17 13:27:28;;;;;;;20.77;4.30;;;;;;;28.25;nan;101553.22;6196188;23;20804;-94
2022/10/17 13:29:57;;;;;;;18.70;4.70;;;;;;;28.32;nan;101570.56;6197623;23;20919;-94
2022/10/17 13:36:14;;;;;;;15.17;4.27;;;;;;;28.42;nan;101567.69;6243709;23;20525;-92
2022/10/17 13:46:57;;;;;;;15.50;4.13;;;;;;;28.47;nan;101571.31;6247012;23;20371;-93
2022/10/17 13:49:33;;;;;;;12.37;4.00;;;;;;;28.46;nan;101563.16;6245583;23;20413;-94
2022/10/17 13:52:02;;;;;;;19.13;4.60;;;;;;;28.41;nan;101554.75;6195717;23;20464;-94
2022/10/17 13:54:44;;;;;;;14.17;4.30;;;;;;;28.52;nan;101570.41;6197157;23;20398;-93
2022/10/17 13:57:24;;;;;;;15.00;4.00;;;;;;;28.53;nan;101572.94;6195769;23;20410;-94
2022/10/17 13:59:58;;;;;;;14.70;4.07;;;;;;;28.56;nan;101556.59;6221228;23;20532;-94
2022/10/17 14:02:28;;;;;;;15.90;4.30;;;;;;;28.65;nan;101557.66;6220705;23;20434;-94
2022/10/17 14:05:09;;;;;;;17.30;4.30;;;;;;;28.66;nan;101548.09;6196576;23;20477;-94
2022/10/17 14:07:52;;;;;;;17.97;3.63;;;;;;;28.69;nan;101565.19;6202704;23;20406;-94
2022/10/17 14:10:41;;;;;;;15.30;4.43;;;;;;;28.64;nan;101548.38;6226726;23;20445;-92
2022/10/17 14:13:32;;;;;;;13.53;4.40;;;;;;;28.69;nan;101556.75;6197295;23;20474;-94
2022/10/17 14:16:03;;;;;;;10.97;4.13;;;;;;;28.71;nan;101553.63;6200326;23;20513;-93
2022/10/17 14:18:33;;;;;;;13.00;4.13;;;;;;;28.68;nan;101555.06;6197244;23;20843;-94
2022/10/17 14:21:03;;;;;;;7.67;3.60;;;;;;;28.68;nan;101555.06;6198992;23;20398;-94
2022/10/17 14:23:51;;;;;;;12.23;4.30;;;;;;;28.68;nan;101549.44;6205848;23;20943;-94
2022/10/17 14:26:22;;;;;;;10.73;4.60;;;;;;;28.67;nan;101550.56;6198292;23;20398;-94
2022/10/17 14:37:18;;;;;;;12.73;4.03;;;;;;;28.70;nan;101552.81;6272122;22;20407;-93
2022/10/17 14:39:50;;;;;;;14.20;3.90;;;;;;;28.66;nan;101545.28;6248234;23;20481;-92
2022/10/17 14:42:29;;;;;;;13.50;3.97;;;;;;;28.70;nan;101551.97;6171898;23;20417;-92
2022/10/17 14:45:03;;;;;;;16.70;4.20;;;;;;;28.68;nan;101548.59;6197244;23;20754;-92
2022/10/17 14:47:32;;;;;;;16.00;3.90;;;;;;;28.59;nan;101539.97;6174036;23;20401;-93
2022/10/17 14:50:25;;;;;;;20.23;4.30;;;;;;;28.62;nan;101555.44;6183299;23;21019;-93
2022/10/17 14:53:11;;;;;;;19.60;4.50;;;;;;;28.64;nan;101554.00;6172813;23;20481;-94
2022/10/17 14:55:39;;;;;;;15.43;4.37;;;;;;;28.55;nan;101544.50;6221884;23;20485;-93
2022/10/17 15:06:29;;;;;;;15.40;3.77;;;;;;;28.58;nan;101566.44;6248729;23;20358;-93
2022/10/17 15:08:59;;;;;;;16.13;3.87;;;;;;;28.51;nan;101561.13;6222638;23;20489;-94
2022/10/17 15:11:29;;;;;;;16.27;4.10;;;;;;;28.48;nan;101566.53;6174578;23;20414;-94
2022/10/17 15:13:57;;;;;;;14.67;4.63;;;;;;;28.43;nan;101558.97;6172571;23;20433;-94
2022/10/17 15:16:26;;;;;;;13.90;4.23;;;;;;;28.41;nan;101563.19;6172043;23;20414;-94
2022/10/17 15:18:54;;;;;;;16.67;4.07;;;;;;;28.36;nan;101555.63;6172974;23;20498;-94
2022/10/17 15:21:23;;;;;;;14.03;4.50;;;;;;;28.27;nan;101556.56;6173163;23;20494;-94
2022/10/17 15:24:05;;;;;;;14.70;4.60;;;;;;;28.26;nan;101555.72;6181651;23;20437;-94
2022/10/17 15:26:34;;;;;;;11.63;3.97;;;;;;;28.18;nan;101543.09;6173178;23;20409;-95
2022/10/17 15:29:02;;;;;;;19.67;4.10;;;;;;;28.21;nan;101554.91;6172836;23;20458;-94
2022/10/17 15:31:32;;;;;;;12.07;4.53;;;;;;;28.13;nan;101547.91;6173140;23;20402;-95
2022/10/17 15:34:00;;;;;;;14.23;4.10;;;;;;;28.11;nan;101541.72;6172364;23;20477;-95
2022/10/17 15:36:30;;;;;;;12.83;3.87;;;;;;;28.10;nan;101549.31;6172817;23;20485;-94
2022/10/17 15:39:00;;;;;;;13.37;4.20;;;;;;;28.05;nan;101546.56;6197487;23;20434;-94
2022/10/17 15:41:29;;;;;;;21.87;4.70;;;;;;;27.99;nan;101553.34;6172215;23;20486;-94
2022/10/17 15:43:57;;;;;;;18.17;5.20;;;;;;;27.95;nan;101552.22;6196772;23;20434;-95
2022/10/17 15:46:26;;;;;;;26.43;6.20;;;;;;;27.82;nan;101544.44;6196661;23;20473;-94
2022/10/17 15:48:55;;;;;;;12.00;3.70;;;;;;;27.83;nan;101560.19;6173134;23;20490;-94
2022/10/17 15:55:30;;;;;;;19.50;4.37;;;;;;;27.73;nan;101563.88;6155815;23;20417;-93
2022/10/17 15:57:58;;;;;;;18.10;4.37;;;;;;;27.60;nan;101552.44;6107530;23;20401;-94
2022/10/17 16:00:26;;;;;;;15.93;4.17;;;;;;;27.55;nan;101552.41;6106691;23;20412;-94
2022/10/17 16:06:41;;;;;;;13.00;3.37;;;;;;;27.29;nan;101549.72;6155531;23;20432;-93
2022/10/17 16:17:30;;;;;;;15.40;4.23;;;;;;;27.08;nan;101576.16;6233721;23;20405;-93
2022/10/17 16:19:58;;;;;;;14.40;4.27;;;;;;;26.95;nan;101569.16;6246575;23;20403;-94
2022/10/17 16:22:37;;;;;;;15.83;4.10;;;;;;;26.90;nan;101568.31;6197384;23;20411;-92
2022/10/17 16:25:18;;;;;;;13.77;3.60;;;;;;;26.78;nan;101563.81;6222933;23;20395;-91
2022/10/17 16:27:47;;;;;;;11.67;4.10;;;;;;;26.68;nan;101572.25;6201013;23;20464;-93
2022/10/17 16:30:17;;;;;;;15.90;3.90;;;;;;;26.58;nan;101554.59;6222204;23;20387;-93
2022/10/17 16:32:46;;;;;;;14.87;4.20;;;;;;;26.49;nan;101568.34;6196834;23;20513;-92
2022/10/17 16:35:48;;;;;;;15.40;4.70;;;;;;;26.38;nan;101570.28;6196731;23;20402;-92
2022/10/17 16:38:15;;;;;;;19.37;4.27;;;;;;;26.29;nan;101569.16;6225644;23;20438;-93
2022/10/17 16:40:43;;;;;;;12.40;4.37;;;;;;;26.15;nan;101571.66;6196300;23;20544;-93
2022/10/17 16:43:11;;;;;;;13.63;5.03;;;;;;;26.05;nan;101580.03;6196466;23;20438;-93
2022/10/17 16:45:39;;;;;;;20.20;5.30;;;;;;;25.87;nan;101582.50;6196432;23;20391;-94
2022/10/17 16:48:08;;;;;;;22.60;5.70;;;;;;;25.71;nan;101573.22;6196683;23;20478;-92
2022/10/17 16:50:38;;;;;;;21.33;5.00;;;;;;;25.57;nan;101578.44;6196317;23;20407;-94
2022/10/17 16:56:50;;;;;;;17.50;5.37;;;;;;;25.33;nan;101578.03;6247382;23;20890;-93
2022/10/17 17:07:41;;;;;;;18.23;5.97;;;;;;;24.81;nan;101574.34;6247181;23;20494;-92
2022/10/17 17:10:08;;;;;;;34.80;7.07;;;;;;;24.66;nan;101578.69;6245493;23;20415;-94
2022/10/17 17:12:36;;;;;;;26.20;6.37;;;;;;;24.54;nan;101575.22;6195689;23;20410;-94
2022/10/17 17:15:04;;;;;;;19.27;5.60;;;;;;;24.31;nan;101554.06;6196739;23;20533;-94
2022/10/17 17:17:31;;;;;;;17.97;5.50;;;;;;;24.27;nan;101575.25;6195842;23;20421;-94
2022/10/17 17:20:16;;;;;;;24.40;6.00;;;;;;;24.14;nan;101563.66;6203112;23;20429;-94
2022/10/17 17:22:43;;;;;;;16.37;6.10;;;;;;;24.01;nan;101562.13;6195731;23;20904;-94
2022/10/17 17:25:13;;;;;;;20.70;5.63;;;;;;;23.93;nan;101571.81;6195911;23;20521;-94
2022/10/17 17:27:42;;;;;;;23.17;5.40;;;;;;;23.81;nan;101551.59;6154553;23;20412;-93
2022/10/17 17:30:10;;;;;;;22.43;5.70;;;;;;;23.72;nan;101573.53;6105830;23;20417;-94
2022/10/17 17:32:38;;;;;;;28.10;6.60;;;;;;;23.61;nan;101571.72;6106503;23;20853;-94
2022/10/17 17:35:08;;;;;;;29.90;6.40;;;;;;;23.43;nan;101561.69;6082469;23;20873;-93
2022/10/17 17:37:37;;;;;;;26.97;6.10;;;;;;;23.46;nan;101584.63;6130560;23;20832;-95
2022/10/17 17:40:05;;;;;;;22.00;5.93;;;;;;;23.31;nan;101566.53;6082558;23;20472;-93
2022/10/17 17:42:32;;;;;;;27.00;6.13;;;;;;;23.26;nan;101569.28;6084488;23;20413;-93
2022/10/17 17:45:00;;;;;;;24.37;6.40;;;;;;;23.15;nan;101559.06;6097880;23;20434;-94
2022/10/17 17:47:28;;;;;;;27.77;6.60;;;;;;;23.10;nan;101570.16;6197934;23;20459;-95
2022/10/17 17:49:56;;;;;;;23.47;5.77;;;;;;;22.98;nan;101572.22;6198154;23;20413;-93
2022/10/17 17:52:23;;;;;;;31.90;6.00;;;;;;;22.90;nan;101570.69;6198510;23;20391;-93
2022/10/17 17:54:51;;;;;;;21.03;5.93;;;;;;;22.81;nan;101561.09;6222940;23;21012;-95
2022/10/17 17:57:19;;;;;;;23.13;5.50;;;;;;;22.77;nan;101576.63;6197469;23;20414;-95
2022/10/17 17:59:51;;;;;;;20.10;5.73;;;;;;;22.70;nan;101575.94;6198100;23;20424;-95
2022/10/17 18:02:18;;;;;;;26.57;6.20;;;;;;;22.63;nan;101578.91;6199660;23;20486;-93
2022/10/17 18:04:47;;;;;;;18.90;5.60;;;;;;;22.57;nan;101577.13;6197727;23;20482;-93
2022/10/17 18:07:15;;;;;;;23.43;5.90;;;;;;;22.52;nan;101577.00;6223458;23;20493;-94
2022/10/17 18:09:42;;;;;;;22.43;5.53;;;;;;;22.42;nan;101568.50;6198133;23;20469;-93
2022/10/17 18:12:11;;;;;;;17.60;6.00;;;;;;;22.34;nan;101569.75;6197770;23;20718;-93